createdAt,value
2023-05-05T00:00:59.808Z,13.02
2023-05-05T00:03:27.649Z,13.04
2023-05-05T00:05:55.346Z,12.90
2023-05-05T00:08:22.845Z,13.01
2023-05-05T00:10:51.657Z,13.03
2023-05-05T00:13:19.748Z,12.99
2023-05-05T00:15:48.207Z,12.91
2023-05-05T00:18:16.491Z,12.93
2023-05-05T00:20:47.695Z,12.85
2023-05-05T00:23:16.101Z,12.67
2023-05-05T00:25:43.498Z,12.58
2023-05-05T00:28:11.319Z,12.64
2023-05-05T00:30:39.264Z,12.64
2023-05-05T00:33:06.863Z,12.63
2023-05-05T00:35:34.334Z,12.56
2023-05-05T00:38:01.828Z,12.44
2023-05-05T00:40:29.133Z,12.47
2023-05-05T00:42:56.439Z,12.53
2023-05-05T00:45:23.830Z,12.43
2023-05-05T00:47:53.653Z,12.48
2023-05-05T00:50:25.231Z,12.38
2023-05-05T00:52:54.262Z,12.33
2023-05-05T00:55:21.768Z,12.38
2023-05-05T00:57:50.050Z,12.35
2023-05-05T01:00:18.068Z,12.38
2023-05-05T01:02:45.527Z,12.46
2023-05-05T01:05:14.439Z,12.49
2023-05-05T01:07:50.005Z,12.37
2023-05-05T01:10:20.669Z,12.32
2023-05-05T01:12:58.200Z,12.32
2023-05-05T01:15:28.891Z,12.28
2023-05-05T01:18:14.904Z,12.29
2023-05-05T01:20:50.574Z,12.33
2023-05-05T01:23:30.146Z,12.27
2023-05-05T01:26:08.619Z,12.27
2023-05-05T01:28:36.128Z,12.27
2023-05-05T01:31:09.035Z,12.18
2023-05-05T01:33:42.274Z,12.28
2023-05-05T01:36:15.704Z,12.25
2023-05-05T01:38:45.312Z,12.27
2023-05-05T01:41:12.553Z,12.28
2023-05-05T01:43:41.323Z,12.29
2023-05-05T01:46:09.073Z,12.29
2023-05-05T01:48:37.054Z,12.17
2023-05-05T01:51:05.451Z,12.12
2023-05-05T01:53:34.308Z,12.09
2023-05-05T01:56:02.056Z,12.06
2023-05-05T01:58:30.232Z,11.96
2023-05-05T02:00:57.985Z,11.99
2023-05-05T02:03:28.402Z,11.92
2023-05-05T02:05:56.966Z,11.97
2023-05-05T02:08:26.142Z,11.89
2023-05-05T02:10:54.762Z,11.85
2023-05-05T02:13:23.499Z,11.85
2023-05-05T02:15:51.934Z,11.88
2023-05-05T02:18:20.117Z,11.83
2023-05-05T02:20:47.451Z,11.68
2023-05-05T02:23:14.723Z,11.80
2023-05-05T02:25:42.779Z,11.80
2023-05-05T02:28:13.285Z,11.68
2023-05-05T02:30:41.800Z,11.73
2023-05-05T02:33:10.795Z,11.75
2023-05-05T02:35:39.868Z,11.74
2023-05-05T02:38:13.594Z,11.68
2023-05-05T02:40:43.640Z,11.64
2023-05-05T02:43:16.917Z,11.66
2023-05-05T02:45:44.432Z,11.66
2023-05-05T02:48:13.172Z,11.56
2023-05-05T02:50:40.793Z,11.61
2023-05-05T02:53:29.361Z,11.57
2023-05-05T02:56:11.207Z,11.58
2023-05-05T02:58:54.342Z,11.57
2023-05-05T03:01:25.439Z,11.57
2023-05-05T03:03:56.268Z,11.56
2023-05-05T03:06:27.278Z,11.56
2023-05-05T03:08:57.962Z,11.52
2023-05-05T03:11:26.928Z,11.52
2023-05-05T03:14:01.446Z,11.43
2023-05-05T03:16:30.359Z,11.48
2023-05-05T03:18:59.542Z,11.58
2023-05-05T03:21:27.617Z,11.57
2023-05-05T03:23:55.258Z,11.58
2023-05-05T03:26:23.043Z,11.54
2023-05-05T03:28:50.572Z,11.45
2023-05-05T03:31:25.976Z,11.47
2023-05-05T03:33:56.890Z,11.47
2023-05-05T03:36:29.427Z,11.46
2023-05-05T03:38:58.633Z,11.45
2023-05-05T03:41:28.669Z,11.36
2023-05-05T03:43:56.478Z,11.29
2023-05-05T03:46:24.619Z,11.30
2023-05-05T03:48:52.144Z,11.30
2023-05-05T03:51:19.485Z,11.34
2023-05-05T03:53:46.887Z,11.29
2023-05-05T03:56:14.234Z,11.24
2023-05-05T03:58:42.130Z,11.27
2023-05-05T04:01:09.317Z,11.19
2023-05-05T04:03:36.822Z,11.22
2023-05-05T04:06:04.267Z,11.13
2023-05-05T04:08:32.894Z,11.10
2023-05-05T04:11:02.616Z,11.16
2023-05-05T04:13:31.223Z,11.32
2023-05-05T04:15:59.914Z,11.27
2023-05-05T04:18:27.356Z,11.22
2023-05-05T04:20:54.696Z,11.34
2023-05-05T04:23:22.975Z,11.35
2023-05-05T04:25:50.534Z,11.32
2023-05-05T04:28:20.973Z,11.33
2023-05-05T04:30:49.120Z,11.38
2023-05-05T04:33:16.400Z,11.44
2023-05-05T04:35:43.816Z,11.54
2023-05-05T04:38:11.252Z,11.55
2023-05-05T04:40:39.541Z,11.52
2023-05-05T04:43:07.671Z,11.58
2023-05-05T04:45:35.060Z,11.55
2023-05-05T04:48:05.139Z,11.56
2023-05-05T04:50:32.838Z,11.64
2023-05-05T04:53:00.314Z,11.72
2023-05-05T04:55:28.062Z,11.84
2023-05-05T04:57:55.578Z,11.85
2023-05-05T05:00:24.212Z,11.92
2023-05-05T05:02:53.295Z,11.92
2023-05-05T05:05:21.664Z,12.00
2023-05-05T05:07:48.976Z,12.07
2023-05-05T05:10:17.229Z,12.06
2023-05-05T05:12:44.559Z,12.18
2023-05-05T05:15:13.121Z,12.20
2023-05-05T05:17:40.886Z,12.23
2023-05-05T05:20:09.126Z,12.28
2023-05-05T05:22:38.821Z,12.36
2023-05-05T05:25:09.591Z,12.51
2023-05-05T05:27:37.397Z,12.60
2023-05-05T05:30:04.727Z,12.67
2023-05-05T05:32:33.216Z,12.72
2023-05-05T05:35:01.235Z,12.81
2023-05-05T05:37:28.992Z,12.92
2023-05-05T05:39:57.003Z,12.99
2023-05-05T05:42:51.179Z,13.17
2023-05-05T05:45:18.428Z,13.30
2023-05-05T05:47:45.672Z,13.38
2023-05-05T05:50:13.226Z,13.43
2023-05-05T05:52:40.701Z,13.56
2023-05-05T05:55:08.255Z,13.68
2023-05-05T05:57:35.982Z,13.76
2023-05-05T06:00:04.812Z,13.87
2023-05-05T06:02:39.181Z,13.95
2023-05-05T06:05:10.740Z,14.07
2023-05-05T06:07:38.067Z,14.22
2023-05-05T06:10:22.832Z,14.33
2023-05-05T06:12:54.154Z,14.24
2023-05-05T06:15:21.500Z,14.31
2023-05-05T06:17:49.088Z,14.37
2023-05-05T06:20:16.442Z,14.37
2023-05-05T06:22:43.724Z,14.40
2023-05-05T06:25:11.304Z,14.40
2023-05-05T06:27:39.050Z,14.47
2023-05-05T06:30:07.358Z,14.57
2023-05-05T06:32:34.968Z,14.62
2023-05-05T06:35:02.396Z,14.88
2023-05-05T06:37:30.069Z,15.05
2023-05-05T06:39:57.244Z,15.24
2023-05-05T06:42:24.474Z,15.33
2023-05-05T06:44:53.525Z,15.52
2023-05-05T06:47:20.748Z,15.68
2023-05-05T06:49:47.877Z,15.88
2023-05-05T06:52:15.177Z,15.99
2023-05-05T06:54:43.522Z,16.07
2023-05-05T06:57:13.774Z,16.25
2023-05-05T06:59:42.177Z,16.31
2023-05-05T07:02:09.452Z,16.49
2023-05-05T07:04:37.304Z,16.67
2023-05-05T07:07:04.642Z,16.78
2023-05-05T07:09:31.891Z,16.98
2023-05-05T07:11:59.180Z,17.14
2023-05-05T07:14:26.377Z,17.36
2023-05-05T07:16:53.779Z,17.64
2023-05-05T07:19:21.181Z,17.79
2023-05-05T07:21:48.765Z,18.01
2023-05-05T07:24:19.578Z,18.03
2023-05-05T07:26:55.781Z,18.04
2023-05-05T07:29:28.820Z,17.81
2023-05-05T07:31:56.404Z,17.96
2023-05-05T07:34:24.003Z,18.09
2023-05-05T07:36:52.969Z,18.36
2023-05-05T07:39:21.310Z,18.37
2023-05-05T07:41:48.845Z,18.34
2023-05-05T07:44:16.346Z,18.30
2023-05-05T07:46:43.769Z,18.75
2023-05-05T07:49:11.032Z,18.95
2023-05-05T07:51:38.259Z,18.89
2023-05-05T07:54:05.761Z,19.18
2023-05-05T07:56:33.007Z,19.11
2023-05-05T07:59:00.258Z,18.95
2023-05-05T08:01:27.593Z,18.89
2023-05-05T08:03:54.931Z,18.74
2023-05-05T08:06:23.517Z,19.00
2023-05-05T08:08:54.229Z,19.28
2023-05-05T08:11:22.183Z,19.55
2023-05-05T08:13:49.491Z,19.52
2023-05-05T08:16:16.804Z,19.82
2023-05-05T08:18:44.653Z,20.03
2023-05-05T08:21:12.165Z,20.09
2023-05-05T08:23:39.813Z,20.22
2023-05-05T08:26:07.197Z,20.28
2023-05-05T08:28:35.591Z,20.38
2023-05-05T08:31:06.741Z,20.56
2023-05-05T08:33:34.076Z,20.50
2023-05-05T08:36:01.486Z,20.60
2023-05-05T08:38:28.772Z,20.44
2023-05-05T08:40:56.170Z,20.53
2023-05-05T08:43:24.059Z,20.74
2023-05-05T08:45:54.272Z,20.47
2023-05-05T08:48:23.275Z,20.73
2023-05-05T08:51:00.782Z,20.25
2023-05-05T08:53:48.044Z,20.95
2023-05-05T08:56:16.063Z,21.01
2023-05-05T08:58:43.556Z,21.06
2023-05-05T09:01:11.620Z,21.52
2023-05-05T09:03:39.422Z,21.42
2023-05-05T09:06:06.983Z,21.15
2023-05-05T09:08:34.221Z,20.93
2023-05-05T09:11:02.265Z,21.13
2023-05-05T09:13:32.964Z,20.98
2023-05-05T09:16:00.422Z,20.87
2023-05-05T09:18:27.590Z,20.92
2023-05-05T09:20:56.366Z,21.29
2023-05-05T09:23:24.819Z,21.08
2023-05-05T09:26:05.513Z,21.64
2023-05-05T09:28:32.874Z,21.61
2023-05-05T09:31:16.381Z,21.63
2023-05-05T09:33:43.876Z,22.18
2023-05-05T09:36:12.273Z,22.14
2023-05-05T09:38:39.504Z,22.36
2023-05-05T09:41:06.834Z,22.49
2023-05-05T09:43:51.859Z,22.14
2023-05-05T09:46:19.387Z,22.14
2023-05-05T09:48:46.793Z,22.52
2023-05-05T09:51:14.142Z,22.06
2023-05-05T09:53:42.340Z,22.66
2023-05-05T09:56:10.387Z,22.66
2023-05-05T09:58:37.787Z,22.64
2023-05-05T10:01:05.203Z,23.01
2023-05-05T10:03:33.161Z,22.93
2023-05-05T10:06:01.151Z,22.93
2023-05-05T10:08:30.551Z,22.29
2023-05-05T10:11:00.594Z,22.29
2023-05-05T10:13:30.084Z,22.28
2023-05-05T10:15:57.731Z,22.50
2023-05-05T10:18:26.479Z,22.99
2023-05-05T10:21:01.264Z,23.30
2023-05-05T10:23:47.294Z,22.42
2023-05-05T10:26:15.101Z,22.76
2023-05-05T10:28:50.580Z,23.37
2023-05-05T10:31:25.801Z,23.60
2023-05-05T10:33:59.615Z,23.09
2023-05-05T10:36:28.056Z,23.40
2023-05-05T10:38:57.057Z,23.51
2023-05-05T10:41:24.749Z,24.30
2023-05-05T10:43:55.286Z,24.07
2023-05-05T10:46:22.782Z,24.42
2023-05-05T10:49:12.962Z,24.43
2023-05-05T10:51:49.853Z,24.62
2023-05-05T10:54:21.982Z,24.71
2023-05-05T10:56:49.323Z,23.56
2023-05-05T10:59:35.465Z,24.22
2023-05-05T11:02:18.363Z,23.92
2023-05-05T11:05:03.264Z,23.65
2023-05-05T11:07:30.839Z,23.46
2023-05-05T11:09:59.533Z,23.78
2023-05-05T11:12:27.008Z,23.84
2023-05-05T11:15:13.485Z,24.10
2023-05-05T11:17:44.643Z,23.75
2023-05-05T11:20:11.910Z,23.45
2023-05-05T11:22:57.978Z,23.39
2023-05-05T11:25:38.094Z,23.64
2023-05-05T11:28:10.271Z,23.88
2023-05-05T11:30:56.015Z,23.44
2023-05-05T11:33:23.760Z,23.83
2023-05-05T11:35:57.726Z,23.47
2023-05-05T11:38:45.347Z,23.77
2023-05-05T11:41:12.563Z,24.02
2023-05-05T11:43:43.226Z,24.24
2023-05-05T11:46:12.378Z,24.07
2023-05-05T11:48:48.718Z,23.92
2023-05-05T11:51:16.956Z,23.87
2023-05-05T11:53:45.161Z,23.58
2023-05-05T11:56:14.231Z,23.61
2023-05-05T11:58:42.062Z,23.45
2023-05-05T12:01:09.707Z,23.56
2023-05-05T12:03:37.867Z,23.86
2023-05-05T12:06:06.248Z,24.26
2023-05-05T12:08:40.630Z,24.20
2023-05-05T12:11:08.702Z,24.47
2023-05-05T12:13:36.160Z,24.94
2023-05-05T12:16:10.356Z,25.19
2023-05-05T12:18:37.693Z,24.53
2023-05-05T12:21:17.909Z,24.65
2023-05-05T12:23:45.511Z,24.43
2023-05-05T12:26:31.943Z,24.57
2023-05-05T12:29:00.101Z,24.50
2023-05-05T12:31:37.541Z,24.72
2023-05-05T12:34:05.433Z,25.04
2023-05-05T12:36:33.566Z,24.99
2023-05-05T12:39:00.949Z,25.08
2023-05-05T12:41:28.599Z,24.88
2023-05-05T12:43:59.561Z,24.61
2023-05-05T12:46:27.298Z,24.58
2023-05-05T12:49:00.853Z,24.67
2023-05-05T12:51:28.166Z,24.63
2023-05-05T12:54:08.544Z,24.46
2023-05-05T12:56:37.603Z,25.33
2023-05-05T12:59:05.855Z,25.39
2023-05-05T13:01:33.638Z,25.07
2023-05-05T13:04:08.194Z,25.32
2023-05-05T13:06:36.185Z,25.21
2023-05-05T13:09:03.940Z,25.13
2023-05-05T13:11:34.441Z,25.15
2023-05-05T13:14:01.683Z,25.12
2023-05-05T13:16:29.613Z,25.00
2023-05-05T13:18:57.905Z,24.92
2023-05-05T13:21:25.159Z,25.27
2023-05-05T13:23:52.392Z,25.13
2023-05-05T13:26:20.187Z,24.78
2023-05-05T13:28:47.554Z,24.92
2023-05-05T13:31:14.867Z,24.83
2023-05-05T13:33:42.102Z,24.69
2023-05-05T13:36:09.421Z,24.43
2023-05-05T13:38:36.783Z,24.58
2023-05-05T13:41:04.062Z,24.78
2023-05-05T13:43:31.379Z,24.99
2023-05-05T13:46:08.653Z,25.12
2023-05-05T13:48:45.145Z,25.43
2023-05-05T13:51:12.563Z,25.48
2023-05-05T13:53:43.762Z,25.02
2023-05-05T13:56:11.250Z,24.97
2023-05-05T13:58:38.566Z,25.11
2023-05-05T14:01:06.037Z,25.45
2023-05-05T14:03:33.371Z,24.93
2023-05-05T14:06:00.613Z,25.31
2023-05-05T14:08:28.582Z,24.95
2023-05-05T14:10:55.860Z,25.12
2023-05-05T14:13:23.333Z,25.57
2023-05-05T14:15:58.538Z,25.63
2023-05-05T14:18:25.995Z,25.40
2023-05-05T14:20:53.390Z,25.20
2023-05-05T14:23:20.723Z,25.04
2023-05-05T14:25:48.214Z,24.60
2023-05-05T14:28:15.626Z,24.47
2023-05-05T14:30:42.986Z,24.43
2023-05-05T14:33:10.359Z,24.85
2023-05-05T14:35:37.651Z,24.88
2023-05-05T14:38:04.994Z,25.09
2023-05-05T14:40:32.404Z,25.05
2023-05-05T14:43:00.215Z,24.84
2023-05-05T14:45:29.619Z,25.00
2023-05-05T14:47:57.344Z,25.00
2023-05-05T14:50:24.678Z,25.09
2023-05-05T14:52:52.116Z,25.38
2023-05-05T14:55:21.916Z,25.34
2023-05-05T14:57:49.200Z,25.28
2023-05-05T15:00:16.825Z,24.95
2023-05-05T15:02:44.148Z,24.83
2023-05-05T15:05:11.794Z,25.01
2023-05-05T15:07:40.149Z,25.17
2023-05-05T15:10:07.685Z,24.83
2023-05-05T15:12:35.236Z,24.96
2023-05-05T15:15:02.556Z,24.58
2023-05-05T15:17:30.848Z,24.89
2023-05-05T15:19:58.156Z,25.01
2023-05-05T15:22:25.563Z,24.88
2023-05-05T15:24:53.263Z,25.23
2023-05-05T15:27:20.484Z,24.89
2023-05-05T15:29:48.616Z,24.90
2023-05-05T15:32:16.049Z,24.77
2023-05-05T15:34:44.936Z,24.41
2023-05-05T15:37:12.307Z,24.38
2023-05-05T15:39:39.765Z,24.68
2023-05-05T15:42:07.489Z,24.88
2023-05-05T15:44:34.807Z,24.53
2023-05-05T15:47:02.200Z,24.18
2023-05-05T15:49:29.558Z,24.05
2023-05-05T15:51:57.058Z,23.98
2023-05-05T15:54:24.257Z,24.10
2023-05-05T15:56:51.502Z,24.09
2023-05-05T15:59:19.252Z,24.07
2023-05-05T16:01:47.392Z,24.05
2023-05-05T16:04:14.671Z,23.97
2023-05-05T16:06:42.017Z,24.13
2023-05-05T16:09:09.328Z,24.00
2023-05-05T16:11:37.450Z,23.91
2023-05-05T16:14:04.799Z,23.93
2023-05-05T16:16:32.167Z,23.96
2023-05-05T16:18:59.645Z,23.94
2023-05-05T16:21:27.603Z,23.86
2023-05-05T16:23:55.730Z,23.87
2023-05-05T16:26:23.035Z,23.87
2023-05-05T16:28:50.408Z,23.71
2023-05-05T16:31:17.886Z,23.70
2023-05-05T16:33:45.779Z,23.80
2023-05-05T16:36:34.113Z,23.87
2023-05-05T16:43:37.356Z,23.85
2023-05-05T16:46:04.826Z,23.97
2023-05-05T16:48:32.118Z,24.10
2023-05-05T16:51:00.698Z,24.12
2023-05-05T16:53:31.269Z,24.01
2023-05-05T16:56:01.544Z,23.85
2023-05-05T16:58:29.049Z,23.72
2023-05-05T17:00:59.311Z,23.64
2023-05-05T17:03:26.608Z,23.70
2023-05-05T17:05:53.981Z,23.55
2023-05-05T17:08:21.995Z,23.45
2023-05-05T17:10:49.326Z,23.32
2023-05-05T17:13:16.829Z,23.50
2023-05-05T17:15:44.486Z,23.41
2023-05-05T17:18:11.995Z,23.33
2023-05-05T17:20:39.376Z,23.25
2023-05-05T17:23:09.387Z,23.11
2023-05-05T17:25:39.631Z,23.10
2023-05-05T17:28:17.645Z,23.02
2023-05-05T17:30:45.536Z,22.95
2023-05-05T17:33:13.338Z,22.81
2023-05-05T17:35:42.161Z,22.78
2023-05-05T17:38:09.686Z,22.65
2023-05-05T17:40:36.926Z,22.57
2023-05-05T17:43:04.403Z,22.53
2023-05-05T17:45:31.883Z,22.43
2023-05-05T17:48:00.864Z,22.46
2023-05-05T17:50:28.155Z,22.42
2023-05-05T17:52:56.435Z,22.34
2023-05-05T17:55:23.726Z,22.17
2023-05-05T17:58:15.721Z,22.17
2023-05-05T18:00:44.967Z,22.04
2023-05-05T18:03:13.115Z,21.99
2023-05-05T18:05:43.276Z,21.87
2023-05-05T18:08:11.319Z,21.65
2023-05-05T18:10:38.565Z,21.56
2023-05-05T18:13:06.328Z,21.46
2023-05-05T18:15:35.905Z,21.38
2023-05-05T18:18:12.510Z,21.31
2023-05-05T18:20:42.798Z,21.10
2023-05-05T18:23:11.338Z,21.13
2023-05-05T18:25:38.605Z,20.91
2023-05-05T18:28:06.016Z,20.92
2023-05-05T18:30:37.091Z,20.57
2023-05-05T18:33:19.231Z,20.23
2023-05-05T18:35:52.620Z,20.09
2023-05-05T18:38:21.579Z,19.86
2023-05-05T18:40:48.906Z,19.68
2023-05-05T18:43:21.544Z,19.59
2023-05-05T18:45:59.406Z,19.41
2023-05-05T18:48:27.800Z,19.17
2023-05-05T18:50:55.012Z,19.05
2023-05-05T18:53:22.451Z,18.99
2023-05-05T18:55:49.838Z,18.85
2023-05-05T18:58:17.600Z,18.79
2023-05-05T19:00:44.949Z,18.77
2023-05-05T19:03:12.350Z,18.69
2023-05-05T19:05:41.028Z,18.64
2023-05-05T19:08:08.600Z,18.51
2023-05-05T19:10:36.602Z,18.57
2023-05-05T19:13:04.860Z,18.46
2023-05-05T19:15:32.611Z,18.31
2023-05-05T19:18:01.470Z,18.21
2023-05-05T19:20:31.716Z,18.20
2023-05-05T19:23:03.824Z,18.18
2023-05-05T19:25:31.810Z,18.13
2023-05-05T19:27:59.826Z,18.05
2023-05-05T19:30:27.876Z,17.88
2023-05-05T19:32:55.139Z,17.77
2023-05-05T19:35:23.063Z,17.58
2023-05-05T19:37:50.691Z,17.86
2023-05-05T19:40:20.131Z,17.97
2023-05-05T19:42:50.592Z,17.99
2023-05-05T19:45:18.023Z,17.99
2023-05-05T19:47:48.772Z,17.96
2023-05-05T19:50:16.075Z,17.90
2023-05-05T19:52:43.689Z,17.73
2023-05-05T19:55:11.018Z,17.67
2023-05-05T19:57:38.438Z,17.66
2023-05-05T20:00:07.338Z,17.61
2023-05-05T20:02:36.911Z,17.54
2023-05-05T20:05:04.655Z,17.59
2023-05-05T20:07:31.982Z,17.55
2023-05-05T20:10:00.712Z,17.50
2023-05-05T20:12:27.921Z,17.41
2023-05-05T20:14:55.594Z,17.23
2023-05-05T20:17:23.825Z,17.25
2023-05-05T20:19:51.187Z,17.25
2023-05-05T20:22:18.598Z,17.26
2023-05-05T20:24:45.772Z,17.20
2023-05-05T20:27:13.093Z,17.21
2023-05-05T20:29:40.415Z,17.17
2023-05-05T20:32:07.700Z,17.10
2023-05-05T20:34:34.940Z,17.08
2023-05-05T20:37:02.405Z,17.05
2023-05-05T20:39:29.831Z,16.98
2023-05-05T20:41:57.082Z,16.97
2023-05-05T20:44:24.413Z,16.86
2023-05-05T20:46:51.970Z,16.84
2023-05-05T20:49:19.253Z,16.78
2023-05-05T20:51:46.569Z,16.81
2023-05-05T20:54:13.908Z,16.77
2023-05-05T20:56:41.336Z,16.75
2023-05-05T20:59:08.714Z,16.75
2023-05-05T21:01:36.292Z,16.73
2023-05-05T21:04:03.654Z,16.71
2023-05-05T21:06:32.181Z,16.66
2023-05-05T21:08:59.529Z,16.64
2023-05-05T21:11:26.670Z,16.61
2023-05-05T21:13:53.904Z,16.65
2023-05-05T21:16:21.258Z,16.74
2023-05-05T21:18:48.623Z,16.71
2023-05-05T21:21:15.912Z,16.69
2023-05-05T21:23:46.151Z,16.65
2023-05-05T21:26:14.067Z,16.64
2023-05-05T21:28:41.792Z,16.58
2023-05-05T21:33:39.445Z,16.55
2023-05-05T21:36:06.840Z,16.47
2023-05-05T21:38:34.115Z,16.46
2023-05-05T21:41:01.393Z,16.46
2023-05-05T21:43:28.818Z,16.43
2023-05-05T21:46:02.353Z,16.43
2023-05-05T21:48:31.041Z,16.38
2023-05-05T21:50:58.243Z,16.32
2023-05-05T21:53:25.505Z,16.28
2023-05-05T21:55:52.739Z,16.22
2023-05-05T21:58:19.973Z,16.16
2023-05-05T22:00:50.737Z,16.12
2023-05-05T22:03:18.234Z,16.06
2023-05-05T22:05:46.158Z,16.02
2023-05-05T22:08:13.484Z,16.03
2023-05-05T22:10:40.866Z,16.01
2023-05-05T22:13:10.635Z,16.03
2023-05-05T22:15:46.136Z,16.02
2023-05-05T22:18:14.725Z,16.03
2023-05-05T22:20:42.386Z,16.03
2023-05-05T22:23:09.788Z,16.02
2023-05-05T22:25:37.029Z,15.95
2023-05-05T22:28:04.405Z,15.99
2023-05-05T22:30:31.703Z,16.06
2023-05-05T22:32:58.920Z,15.99
2023-05-05T22:35:26.276Z,15.95
2023-05-05T22:37:53.636Z,15.90
2023-05-05T22:40:20.872Z,15.96
2023-05-05T22:42:48.156Z,15.95
2023-05-05T22:45:15.361Z,15.76
2023-05-05T22:47:42.756Z,15.47
2023-05-05T22:50:10.374Z,15.43
2023-05-05T22:52:37.668Z,15.37
2023-05-05T22:55:05.019Z,15.44
2023-05-05T22:57:34.092Z,15.51
2023-05-05T23:00:03.696Z,15.42
2023-05-05T23:02:31.987Z,15.49
2023-05-05T23:04:59.246Z,15.54
2023-05-05T23:07:26.678Z,15.42
2023-05-05T23:09:53.971Z,15.29
2023-05-05T23:12:21.263Z,15.24
2023-05-05T23:14:50.042Z,15.31
2023-05-05T23:17:17.405Z,15.27
2023-05-05T23:19:47.350Z,15.23
2023-05-05T23:22:14.686Z,15.27
2023-05-05T23:24:42.029Z,15.25
2023-05-05T23:27:09.415Z,15.28
2023-05-05T23:29:36.729Z,15.34
2023-05-05T23:32:04.043Z,15.38
2023-05-05T23:34:31.347Z,15.44
2023-05-05T23:36:58.552Z,15.48
2023-05-05T23:39:25.759Z,15.39
2023-05-05T23:41:53.009Z,15.39
2023-05-05T23:44:20.230Z,15.43
2023-05-05T23:46:47.430Z,15.49
2023-05-05T23:49:15.026Z,15.32
2023-05-05T23:51:42.492Z,15.28
2023-05-05T23:54:09.871Z,15.01
2023-05-05T23:56:37.620Z,15.00
2023-05-05T23:59:05.440Z,14.82
